Time;durP1;ratioP1;P1;durP2;ratioP2;P2;SDS_P1;SDS_P2;PMS_P1;PMS_P2;Temp;Humidity;BMP_temperature;BMP_pressure;BME280_temperature;BME280_humidity;BME280_pressure;Samples;Min_cycle;Max_cycle;Signal;HPM_P1;HPM_P2
2021/07/05 00:00:20;;;;;;;10.63;3.50;;;15.60;99.90;;;;;;2090547;28;20045;-71
2021/07/05 00:01:21;;;;;;;;;;;15.50;99.90;;;;;;2092621;28;20079;-73
2021/07/05 00:02:22;;;;;;;13.88;3.72;;;15.60;99.90;;;;;;2091878;28;20334;-73
2021/07/05 00:03:23;;;;;;;10.75;3.70;;;15.50;99.90;;;;;;2091516;28;20025;-72
2021/07/05 00:04:23;;;;;;;13.07;4.30;;;15.50;99.90;;;;;;2090484;28;20049;-72
2021/07/05 00:05:24;;;;;;;13.38;4.10;;;15.50;99.90;;;;;;2094495;28;20071;-73
2021/07/05 00:06:25;;;;;;;10.82;3.45;;;15.50;99.90;;;;;;2092103;28;20025;-73
2021/07/05 00:07:25;;;;;;;13.00;3.90;;;15.50;99.90;;;;;;2092161;28;20035;-71
2021/07/05 00:08:26;;;;;;;12.50;3.70;;;15.60;99.90;;;;;;2095798;28;20031;-73
2021/07/05 00:09:27;;;;;;;10.40;3.72;;;15.60;99.90;;;;;;2092173;28;20104;-73
2021/07/05 00:10:28;;;;;;;10.13;3.67;;;15.50;99.90;;;;;;2097292;28;20056;-73
2021/07/05 00:11:29;;;;;;;12.75;4.32;;;15.50;99.90;;;;;;2092583;28;20071;-71
2021/07/05 00:12:29;;;;;;;13.98;4.07;;;15.50;99.90;;;;;;2092697;28;20035;-70
2021/07/05 00:13:31;;;;;;;13.43;3.85;;;15.50;99.90;;;;;;2090670;28;20067;-69
2021/07/05 00:14:32;;;;;;;;;;;15.50;99.90;;;;;;2090163;28;20075;-70
2021/07/05 00:15:34;;;;;;;9.32;3.58;;;15.50;99.90;;;;;;2084021;28;19994;-70
2021/07/05 00:16:37;;;;;;;11.13;3.72;;;15.50;99.90;;;;;;2085329;28;20029;-70
2021/07/05 00:17:37;;;;;;;8.05;3.20;;;15.50;99.90;;;;;;2091781;28;20037;-70
2021/07/05 00:18:38;;;;;;;8.77;3.40;;;15.40;99.90;;;;;;2088651;28;20033;-70
2021/07/05 00:19:39;;;;;;;16.15;3.75;;;15.50;99.90;;;;;;2089970;28;20100;-71
2021/07/05 00:20:42;;;;;;;12.45;3.50;;;15.50;99.90;;;;;;2088617;28;20648;-71
2021/07/05 00:21:43;;;;;;;10.43;3.72;;;15.50;99.90;;;;;;2089250;28;20051;-70
2021/07/05 00:22:44;;;;;;;11.52;3.63;;;15.40;99.90;;;;;;2086768;28;20503;-72
2021/07/05 00:23:44;;;;;;;8.70;3.30;;;15.40;99.90;;;;;;2086060;28;20021;-70
2021/07/05 00:24:45;;;;;;;13.93;3.33;;;15.40;99.90;;;;;;2086372;28;20066;-70
2021/07/05 00:25:46;;;;;;;11.77;3.30;;;15.40;99.90;;;;;;2090096;28;20505;-70
2021/07/05 00:26:47;;;;;;;9.48;3.40;;;15.40;99.90;;;;;;2087279;28;20017;-69
2021/07/05 00:27:47;;;;;;;12.95;3.45;;;15.40;99.90;;;;;;2081806;28;20031;-70
2021/07/05 00:28:48;;;;;;;10.50;3.10;;;15.40;99.90;;;;;;2081838;28;20068;-69
2021/07/05 00:29:49;;;;;;;10.02;3.03;;;15.40;99.90;;;;;;2081641;28;20592;-69
2021/07/05 00:30:49;;;;;;;7.60;3.10;;;15.40;99.90;;;;;;2087195;28;20021;-69
2021/07/05 00:31:51;;;;;;;10.30;3.17;;;15.40;99.90;;;;;;2088492;28;20031;-69
2021/07/05 00:32:52;;;;;;;7.68;3.00;;;15.30;99.90;;;;;;2088677;28;20025;-69
2021/07/05 00:33:53;;;;;;;10.25;3.40;;;15.30;99.90;;;;;;2088639;28;20522;-69
2021/07/05 00:34:53;;;;;;;10.07;3.30;;;15.30;99.90;;;;;;2089738;28;20024;-69
2021/07/05 00:35:54;;;;;;;8.32;3.03;;;15.30;99.90;;;;;;2083992;28;20045;-70
2021/07/05 00:36:55;;;;;;;8.38;3.17;;;15.30;99.90;;;;;;2086047;28;20021;-70
2021/07/05 00:37:56;;;;;;;10.52;2.83;;;15.30;99.90;;;;;;2089661;28;20021;-70
2021/07/05 00:38:57;;;;;;;9.30;3.10;;;15.30;99.90;;;;;;2089583;28;20373;-70
2021/07/05 00:39:57;;;;;;;10.98;3.30;;;15.30;99.90;;;;;;2089236;28;20132;-70
2021/07/05 00:40:58;;;;;;;9.52;2.97;;;15.20;99.90;;;;;;2088706;28;20028;-70
2021/07/05 00:41:59;;;;;;;7.80;3.45;;;15.20;99.90;;;;;;2089471;28;20033;-70
2021/07/05 00:43:00;;;;;;;7.50;2.88;;;15.20;99.90;;;;;;2090028;28;20040;-71
2021/07/05 00:44:01;;;;;;;8.45;2.90;;;15.20;99.90;;;;;;2084918;28;20025;-70
2021/07/05 00:45:05;;;;;;;5.25;2.78;;;15.20;99.90;;;;;;2087238;28;20025;-71
2021/07/05 00:46:06;;;;;;;8.10;2.90;;;15.20;99.90;;;;;;2088452;28;20021;-71
2021/07/05 00:47:06;;;;;;;4.80;2.55;;;15.20;99.90;;;;;;2091269;28;20460;-73
2021/07/05 00:48:07;;;;;;;7.53;2.72;;;15.20;99.90;;;;;;2090176;28;20048;-71
2021/07/05 00:49:08;;;;;;;6.97;2.95;;;15.10;99.90;;;;;;2088247;28;20017;-70
2021/07/05 00:50:11;;;;;;;10.23;2.75;;;15.20;99.90;;;;;;2089189;28;20104;-70
2021/07/05 00:51:12;;;;;;;8.20;3.00;;;15.20;99.90;;;;;;2088607;28;20519;-71
2021/07/05 00:52:13;;;;;;;7.65;2.58;;;15.20;99.90;;;;;;2088755;28;20021;-71
2021/07/05 00:53:14;;;;;;;9.02;3.55;;;15.10;99.90;;;;;;2084417;28;20066;-70
2021/07/05 00:54:16;;;;;;;5.70;2.50;;;15.10;99.90;;;;;;2089120;28;20021;-70
2021/07/05 00:55:17;;;;;;;10.05;2.80;;;15.10;99.90;;;;;;2089686;28;20020;-71
2021/07/05 00:56:18;;;;;;;7.93;2.60;;;15.10;99.90;;;;;;2088869;28;20025;-71
2021/07/05 00:57:27;;;;;;;10.30;2.88;;;15.10;99.90;;;;;;2079260;28;20613;-71
2021/07/05 00:58:29;;;;;;;7.47;2.63;;;15.10;99.90;;;;;;2087380;28;20542;-70
2021/07/05 00:59:30;;;;;;;6.63;2.38;;;15.10;99.90;;;;;;2089452;28;20450;-70
2021/07/05 01:00:32;;;;;;;6.07;2.47;;;15.10;99.90;;;;;;2089261;28;20055;-70
2021/07/05 01:01:33;;;;;;;7.88;2.72;;;15.10;99.90;;;;;;2088638;28;20045;-70
2021/07/05 01:02:33;;;;;;;5.88;2.20;;;15.10;99.90;;;;;;2089650;28;20116;-70
2021/07/05 01:03:34;;;;;;;10.88;3.00;;;15.10;99.90;;;;;;2089254;28;20040;-70
2021/07/05 01:04:35;;;;;;;11.05;3.10;;;15.00;99.90;;;;;;2086300;28;20025;-71
2021/07/05 01:05:36;;;;;;;7.63;2.90;;;15.00;99.90;;;;;;2087032;28;20017;-70
2021/07/05 01:06:37;;;;;;;10.00;2.67;;;15.00;99.90;;;;;;2089122;28;20021;-70
2021/07/05 01:07:38;;;;;;;9.15;2.65;;;15.00;99.90;;;;;;2083367;28;20068;-70
2021/07/05 01:08:39;;;;;;;10.43;2.50;;;15.00;99.90;;;;;;2089796;28;20033;-70
2021/07/05 01:09:41;;;;;;;6.47;2.33;;;15.00;99.90;;;;;;2089660;28;20032;-70
2021/07/05 01:10:42;;;;;;;6.45;2.20;;;15.00;99.90;;;;;;2089766;28;20021;-70
2021/07/05 01:11:43;;;;;;;10.13;2.40;;;15.00;99.90;;;;;;2086406;28;20023;-70
2021/07/05 01:12:44;;;;;;;7.53;2.58;;;15.00;99.90;;;;;;2086347;28;20029;-71
2021/07/05 01:13:45;;;;;;;7.57;2.30;;;15.00;99.90;;;;;;2072977;28;20030;-71
2021/07/05 01:14:46;;;;;;;7.38;2.78;;;14.90;99.90;;;;;;2085400;28;20038;-70
2021/07/05 01:15:47;;;;;;;4.75;2.20;;;14.90;99.90;;;;;;2089451;28;20491;-70
2021/07/05 01:16:47;;;;;;;5.18;2.47;;;14.90;99.90;;;;;;2084927;28;20029;-70
2021/07/05 01:17:49;;;;;;;7.00;1.90;;;14.90;99.90;;;;;;2100317;28;20035;-70
2021/07/05 01:18:49;;;;;;;5.65;2.35;;;14.90;99.90;;;;;;2104736;28;20063;-70
2021/07/05 01:19:51;;;;;;;6.40;2.72;;;14.80;99.90;;;;;;2088537;28;20029;-70
2021/07/05 01:20:51;;;;;;;5.88;2.03;;;14.80;99.90;;;;;;2089022;28;20025;-70
2021/07/05 01:21:54;;;;;;;8.02;2.30;;;14.80;99.90;;;;;;2089351;28;20044;-70
2021/07/05 01:22:55;;;;;;;5.55;1.90;;;14.80;99.90;;;;;;2087359;28;20033;-70
2021/07/05 01:23:56;;;;;;;4.25;2.38;;;14.80;99.90;;;;;;2087600;28;20013;-70
2021/07/05 01:24:57;;;;;;;5.35;2.22;;;14.80;99.90;;;;;;2072554;28;20591;-70
2021/07/05 01:25:58;;;;;;;4.97;2.30;;;14.80;99.90;;;;;;2091901;28;20024;-70
2021/07/05 01:26:59;;;;;;;8.63;2.53;;;14.80;99.90;;;;;;2093391;28;20660;-70
2021/07/05 01:28:01;;;;;;;8.90;2.40;;;14.80;99.90;;;;;;2088911;28;20381;-70
2021/07/05 01:29:03;;;;;;;5.75;2.15;;;14.80;99.90;;;;;;2088597;28;20021;-70
2021/07/05 01:30:05;;;;;;;4.93;2.30;;;14.80;99.90;;;;;;2086983;28;20021;-70
2021/07/05 01:31:06;;;;;;;11.18;2.50;;;14.80;99.90;;;;;;2080161;28;20509;-70
2021/07/05 01:32:08;;;;;;;4.88;2.33;;;14.80;99.90;;;;;;2084342;28;20025;-70
2021/07/05 01:33:10;;;;;;;8.10;2.90;;;14.80;99.90;;;;;;2083329;28;20026;-70
2021/07/05 01:34:11;;;;;;;5.63;2.78;;;14.80;99.90;;;;;;2089027;28;20067;-70
2021/07/05 01:35:13;;;;;;;9.00;2.80;;;14.80;99.90;;;;;;2089228;28;20591;-71
2021/07/05 01:36:13;;;;;;;4.45;2.28;;;14.80;99.90;;;;;;2088846;28;20025;-70
2021/07/05 01:37:14;;;;;;;6.38;2.60;;;14.80;99.90;;;;;;2082998;28;20094;-70
2021/07/05 01:38:19;;;;;;;4.82;2.30;;;14.80;99.90;;;;;;2085803;28;20024;-70
2021/07/05 01:39:21;;;;;;;4.82;2.30;;;14.80;99.90;;;;;;2089153;28;20021;-70
2021/07/05 01:40:22;;;;;;;5.70;2.30;;;14.90;99.90;;;;;;2089441;28;20021;-70
2021/07/05 01:41:23;;;;;;;4.97;2.20;;;14.90;99.90;;;;;;2088633;28;20045;-70
2021/07/05 01:42:24;;;;;;;6.80;2.60;;;14.90;99.90;;;;;;2086483;28;20066;-70
2021/07/05 01:43:25;;;;;;;4.72;2.42;;;14.90;99.90;;;;;;2081007;28;20022;-70
2021/07/05 01:44:26;;;;;;;5.35;2.10;;;14.90;99.90;;;;;;2083851;28;20389;-70
2021/07/05 01:45:29;;;;;;;5.03;2.50;;;14.90;99.90;;;;;;2082642;28;20040;-70
2021/07/05 01:46:30;;;;;;;3.45;2.35;;;14.90;99.90;;;;;;2088770;28;20033;-70
2021/07/05 01:47:31;;;;;;;5.22;2.15;;;14.90;99.90;;;;;;2083882;28;20045;-70
2021/07/05 01:48:31;;;;;;;5.70;2.10;;;14.80;99.90;;;;;;2081277;28;20138;-70
2021/07/05 01:49:32;;;;;;;5.60;2.17;;;14.80;99.90;;;;;;2081228;28;20079;-70
2021/07/05 01:50:33;;;;;;;7.07;2.00;;;14.80;99.90;;;;;;2082574;28;20528;-70
2021/07/05 01:51:34;;;;;;;6.72;2.30;;;14.80;99.90;;;;;;2089589;28;20096;-70
2021/07/05 01:52:35;;;;;;;7.07;2.00;;;14.80;99.90;;;;;;2083711;28;20081;-70
2021/07/05 01:53:36;;;;;;;4.10;1.98;;;14.80;99.90;;;;;;2081070;28;20082;-70
2021/07/05 01:54:36;;;;;;;6.25;2.40;;;14.80;99.90;;;;;;2085653;28;20036;-70
2021/07/05 01:55:38;;;;;;;6.70;2.08;;;14.80;99.90;;;;;;2086993;28;20033;-70
2021/07/05 01:56:39;;;;;;;8.82;2.22;;;14.80;99.90;;;;;;2072207;28;20030;-70
2021/07/05 01:57:40;;;;;;;4.82;2.10;;;14.80;99.90;;;;;;2084780;28;20017;-70
2021/07/05 01:58:41;;;;;;;7.85;2.25;;;14.90;99.90;;;;;;2084273;28;20152;-70
2021/07/05 01:59:41;;;;;;;7.20;2.83;;;14.90;99.90;;;;;;2081208;28;20067;-70
2021/07/05 02:00:46;;;;;;;7.85;2.47;;;14.90;99.90;;;;;;2079356;28;20021;-70
2021/07/05 02:01:47;;;;;;;9.55;2.45;;;14.90;99.90;;;;;;2075982;28;20046;-70
2021/07/05 02:02:47;;;;;;;6.50;2.80;;;14.90;99.90;;;;;;2080709;28;20028;-70
2021/07/05 02:03:48;;;;;;;6.75;1.98;;;14.90;99.90;;;;;;2081160;28;20022;-70
2021/07/05 02:04:50;;;;;;;5.13;1.75;;;14.90;99.90;;;;;;2080294;28;20025;-70
2021/07/05 02:05:51;;;;;;;5.63;2.50;;;14.90;99.90;;;;;;2080328;28;20125;-70
2021/07/05 02:06:51;;;;;;;6.70;1.80;;;14.90;99.90;;;;;;2081169;28;20079;-70
2021/07/05 02:07:53;;;;;;;5.57;2.42;;;14.90;99.90;;;;;;2077456;28;20021;-71
2021/07/05 02:08:54;;;;;;;6.93;2.20;;;14.90;99.90;;;;;;2075008;28;20018;-70
2021/07/05 02:09:54;;;;;;;6.85;2.35;;;14.90;99.90;;;;;;2074680;28;20105;-70
2021/07/05 02:10:56;;;;;;;5.45;2.03;;;14.90;99.90;;;;;;2072573;28;20390;-70
2021/07/05 02:11:57;;;;;;;5.85;1.92;;;14.90;99.90;;;;;;2071759;28;20036;-70
2021/07/05 02:13:01;;;;;;;5.88;2.00;;;14.90;99.90;;;;;;2076732;28;20452;-71
2021/07/05 02:14:04;;;;;;;6.38;1.85;;;14.90;99.90;;;;;;2076477;28;20105;-70
2021/07/05 02:15:06;;;;;;;3.08;1.80;;;14.90;99.90;;;;;;2079364;28;20028;-70
2021/07/05 02:16:07;;;;;;;8.38;2.38;;;14.90;99.90;;;;;;2071885;28;20026;-70
2021/07/05 02:17:10;;;;;;;5.13;2.10;;;14.90;99.90;;;;;;2079586;28;20450;-70
2021/07/05 02:18:11;;;;;;;4.28;2.40;;;14.90;99.90;;;;;;2079925;28;20350;-70
2021/07/05 02:19:12;;;;;;;3.10;1.90;;;14.90;99.90;;;;;;2079931;28;20052;-71
2021/07/05 02:20:21;;;;;;;7.75;2.00;;;14.90;99.90;;;;;;2078221;28;20080;-70
2021/07/05 02:21:21;;;;;;;3.80;2.30;;;14.90;99.90;;;;;;2076945;28;20021;-70
2021/07/05 02:22:22;;;;;;;4.32;2.10;;;14.90;99.90;;;;;;2078586;28;20060;-70
2021/07/05 02:23:23;;;;;;;7.93;2.58;;;15.00;99.90;;;;;;2072473;28;20382;-70
2021/07/05 02:24:23;;;;;;;5.72;2.25;;;14.90;99.90;;;;;;2075344;28;20021;-75
2021/07/05 02:25:27;;;;;;;4.85;1.98;;;14.90;99.90;;;;;;2079801;28;20680;-70
2021/07/05 02:26:28;;;;;;;8.05;2.22;;;15.00;99.90;;;;;;2088060;28;20044;-71
2021/07/05 02:27:29;;;;;;;3.75;1.73;;;15.00;99.90;;;;;;2077071;28;20057;-70
2021/07/05 02:28:33;;;;;;;5.20;2.55;;;14.90;99.90;;;;;;2076987;28;20044;-71
2021/07/05 02:29:35;;;;;;;5.63;2.25;;;14.90;99.90;;;;;;2080651;28;20562;-70
2021/07/05 02:30:36;;;;;;;3.63;1.83;;;15.00;99.90;;;;;;2075015;28;20105;-70
2021/07/05 02:31:37;;;;;;;5.75;2.13;;;14.90;99.90;;;;;;2073572;28;20041;-70
2021/07/05 02:32:41;;;;;;;6.72;2.20;;;14.90;99.90;;;;;;2074301;28;20033;-70
2021/07/05 02:33:41;;;;;;;7.80;2.10;;;14.90;99.90;;;;;;2076586;28;20021;-71
2021/07/05 02:34:42;;;;;;;5.20;1.98;;;14.90;99.90;;;;;;2081023;28;20032;-70
2021/07/05 02:35:43;;;;;;;4.20;1.75;;;14.90;99.90;;;;;;2080642;28;20607;-71
2021/07/05 02:36:44;;;;;;;6.80;2.22;;;14.90;99.90;;;;;;2079541;28;20045;-70
2021/07/05 02:37:47;;;;;;;6.35;2.20;;;14.90;99.90;;;;;;2083182;28;20029;-70
2021/07/05 02:38:48;;;;;;;5.88;2.03;;;15.00;99.90;;;;;;2082266;28;20024;-70
2021/07/05 02:39:49;;;;;;;5.47;2.17;;;14.90;99.90;;;;;;2080945;28;20026;-70
2021/07/05 02:40:56;;;;;;;5.15;1.95;;;15.00;99.90;;;;;;2080735;28;20497;-70
2021/07/05 02:41:57;;;;;;;11.60;2.08;;;14.90;99.90;;;;;;2080701;28;20034;-70
2021/07/05 02:42:58;;;;;;;5.82;2.08;;;15.00;99.90;;;;;;2080941;28;20057;-70
2021/07/05 02:43:59;;;;;;;5.70;2.13;;;15.00;99.90;;;;;;2075155;28;20022;-70
2021/07/05 02:45:06;;;;;;;6.55;2.20;;;15.00;99.90;;;;;;2072830;28;20049;-70
2021/07/05 02:46:06;;;;;;;4.97;1.90;;;14.90;99.90;;;;;;2077892;28;20029;-70
2021/07/05 02:47:07;;;;;;;4.28;2.03;;;14.90;99.90;;;;;;2074184;28;20089;-70
2021/07/05 02:48:13;;;;;;;6.13;2.15;;;14.90;99.90;;;;;;2080740;28;20377;-70
2021/07/05 02:49:14;;;;;;;8.35;1.83;;;14.90;99.90;;;;;;2080018;28;20112;-70
2021/07/05 02:50:15;;;;;;;6.18;2.35;;;14.90;99.90;;;;;;2080251;28;20018;-69
2021/07/05 02:51:16;;;;;;;6.35;1.80;;;14.90;99.90;;;;;;2072103;28;20022;-69
2021/07/05 02:52:16;;;;;;;5.85;1.90;;;14.90;99.90;;;;;;2073912;28;20444;-70
2021/07/05 02:53:17;;;;;;;6.25;2.28;;;14.90;99.90;;;;;;2076319;28;20033;-70
2021/07/05 02:54:18;;;;;;;5.23;2.10;;;14.80;99.90;;;;;;2076529;28;20022;-70
2021/07/05 02:55:19;;;;;;;6.55;2.03;;;14.80;99.90;;;;;;2075402;28;20935;-70
2021/07/05 02:56:19;;;;;;;4.72;2.10;;;14.80;99.90;;;;;;2080650;28;20283;-69
2021/07/05 02:57:29;;;;;;;6.63;2.00;;;14.80;99.90;;;;;;2080363;28;20021;-69
2021/07/05 02:58:32;;;;;;;6.47;2.25;;;14.70;99.90;;;;;;2080854;28;20701;-70
2021/07/05 02:59:33;;;;;;;4.22;1.80;;;14.70;99.90;;;;;;2080317;28;20574;-70
2021/07/05 03:00:37;;;;;;;4.20;1.83;;;14.70;99.90;;;;;;2076552;28;20072;-69
2021/07/05 03:01:38;;;;;;;6.85;1.98;;;14.70;99.90;;;;;;2079230;28;21176;-69
2021/07/05 03:02:39;;;;;;;3.10;1.60;;;14.70;99.90;;;;;;2079526;28;20105;-70
2021/07/05 03:03:40;;;;;;;5.75;2.17;;;14.60;99.90;;;;;;2072773;28;20021;-70
2021/07/05 03:04:40;;;;;;;4.10;2.10;;;14.60;99.90;;;;;;2077580;28;20029;-70
2021/07/05 03:05:41;;;;;;;5.40;2.10;;;14.60;99.90;;;;;;2071612;28;20630;-70
2021/07/05 03:06:42;;;;;;;4.22;1.80;;;14.60;99.90;;;;;;2079749;28;20089;-71
2021/07/05 03:07:44;;;;;;;4.00;1.90;;;14.60;99.90;;;;;;2080846;28;20444;-70
2021/07/05 03:08:44;;;;;;;8.18;2.33;;;14.50;99.90;;;;;;2080697;28;20018;-71
2021/07/05 03:09:45;;;;;;;3.47;2.00;;;14.50;99.90;;;;;;2077154;28;20445;-71
2021/07/05 03:10:46;;;;;;;5.75;2.15;;;14.50;99.90;;;;;;2072190;28;20014;-69
2021/07/05 03:11:47;;;;;;;5.93;2.10;;;14.50;99.90;;;;;;2079815;28;20033;-70
2021/07/05 03:12:48;;;;;;;8.20;1.95;;;14.50;99.90;;;;;;2076804;28;20500;-70
2021/07/05 03:13:49;;;;;;;9.07;2.10;;;14.50;99.90;;;;;;2074163;28;20049;-72
2021/07/05 03:14:49;;;;;;;6.22;2.10;;;14.50;99.90;;;;;;2077404;28;20390;-70
2021/07/05 03:15:52;;;;;;;3.35;2.10;;;14.50;99.90;;;;;;2080257;28;20033;-70
2021/07/05 03:16:53;;;;;;;5.43;2.42;;;14.40;99.90;;;;;;2079767;28;20487;-70
2021/07/05 03:17:54;;;;;;;5.32;2.15;;;14.40;99.90;;;;;;2076782;28;20038;-70
2021/07/05 03:18:55;;;;;;;6.43;2.55;;;14.40;99.90;;;;;;2077848;28;21142;-70
2021/07/05 03:19:55;;;;;;;7.47;2.10;;;14.40;99.90;;;;;;2081268;28;20129;-70
2021/07/05 03:20:56;;;;;;;7.50;2.47;;;14.40;99.90;;;;;;2079850;28;20493;-70
2021/07/05 03:21:57;;;;;;;4.45;2.08;;;14.30;99.90;;;;;;2080036;28;20734;-70
2021/07/05 03:23:00;;;;;;;6.57;2.00;;;14.30;99.90;;;;;;2080564;28;20026;-70
2021/07/05 03:24:01;;;;;;;4.15;1.73;;;14.20;99.90;;;;;;2079840;28;20520;-70
2021/07/05 03:25:04;;;;;;;5.13;1.90;;;14.20;99.90;;;;;;2069126;28;20030;-70
2021/07/05 03:26:05;;;;;;;6.82;2.08;;;14.20;99.90;;;;;;2080969;28;20544;-70
2021/07/05 03:27:05;;;;;;;8.18;2.67;;;14.20;99.90;;;;;;2076149;28;20021;-70
2021/07/05 03:28:08;;;;;;;4.95;1.98;;;14.20;99.90;;;;;;2072576;28;20037;-70
2021/07/05 03:29:09;;;;;;;4.68;2.13;;;14.20;99.90;;;;;;2070483;28;20065;-70
2021/07/05 03:30:11;;;;;;;4.75;2.10;;;14.20;99.90;;;;;;2079309;28;20072;-70
2021/07/05 03:31:12;;;;;;;7.10;2.25;;;14.20;99.90;;;;;;2079710;28;20017;-70
2021/07/05 03:32:12;;;;;;;4.90;1.90;;;14.20;99.90;;;;;;2076998;28;20080;-70
2021/07/05 03:33:14;;;;;;;7.07;2.20;;;14.20;99.90;;;;;;2071861;28;20126;-70
2021/07/05 03:34:15;;;;;;;6.80;2.45;;;14.10;99.90;;;;;;2072669;28;20053;-70
2021/07/05 03:35:17;;;;;;;3.08;1.88;;;14.10;99.90;;;;;;2072254;28;20670;-70
2021/07/05 03:36:18;;;;;;;7.07;2.33;;;14.10;99.90;;;;;;2080132;28;20025;-70
2021/07/05 03:37:18;;;;;;;5.20;2.03;;;14.10;99.90;;;;;;2084010;28;20561;-70
2021/07/05 03:38:20;;;;;;;5.95;2.05;;;14.20;99.90;;;;;;2080737;28;20057;-70
2021/07/05 03:39:21;;;;;;;;;;;14.20;99.90;;;;;;2080004;28;20443;-70
2021/07/05 03:40:26;;;;;;;3.72;1.92;;;14.20;99.90;;;;;;2078650;28;19905;-70
2021/07/05 03:41:26;;;;;;;9.38;2.55;;;14.20;99.90;;;;;;2093183;28;20523;-70
2021/07/05 03:42:27;;;;;;;4.43;2.20;;;14.30;99.90;;;;;;2093334;28;20140;-70
2021/07/05 03:43:28;;;;;;;5.35;2.00;;;14.30;99.90;;;;;;2072692;28;20026;-70
2021/07/05 03:44:28;;;;;;;13.77;2.58;;;14.30;99.90;;;;;;2072438;28;20432;-70
2021/07/05 03:45:31;;;;;;;4.88;2.25;;;14.30;99.90;;;;;;2075537;28;20025;-71
2021/07/05 03:46:32;;;;;;;5.47;2.00;;;14.40;99.90;;;;;;2083385;28;20024;-74
2021/07/05 03:47:33;;;;;;;7.10;2.30;;;14.40;99.90;;;;;;2081444;28;20040;-71
2021/07/05 03:48:34;;;;;;;7.47;2.65;;;14.40;99.90;;;;;;2080861;28;20025;-71
2021/07/05 03:49:35;;;;;;;6.93;2.88;;;14.40;99.90;;;;;;2078027;28;20030;-71
2021/07/05 03:50:37;;;;;;;6.97;2.35;;;14.40;99.90;;;;;;2083331;28;20104;-70
2021/07/05 03:51:38;;;;;;;7.93;2.63;;;14.40;99.90;;;;;;2075528;28;20018;-70
2021/07/05 03:52:39;;;;;;;8.93;2.47;;;14.40;99.90;;;;;;2078654;28;20064;-70
2021/07/05 03:53:40;;;;;;;5.40;2.22;;;14.40;99.90;;;;;;2082349;28;20029;-70
2021/07/05 03:54:40;;;;;;;8.65;2.38;;;14.40;99.90;;;;;;2082073;28;20030;-70
2021/07/05 03:55:41;;;;;;;4.03;1.90;;;14.40;99.90;;;;;;2081406;28;20169;-69
2021/07/05 03:56:42;;;;;;;6.03;2.17;;;14.40;99.90;;;;;;2082240;28;20025;-70
2021/07/05 03:57:44;;;;;;;5.68;2.17;;;14.40;99.90;;;;;;2077091;28;20025;-70
2021/07/05 03:58:44;;;;;;;6.28;2.15;;;14.50;99.90;;;;;;2078948;28;20028;-70
2021/07/05 03:59:45;;;;;;;4.53;2.03;;;14.50;99.90;;;;;;2078453;28;20021;-71
2021/07/05 04:00:46;;;;;;;6.57;2.22;;;14.50;99.90;;;;;;2080972;28;20513;-69
2021/07/05 04:01:47;;;;;;;4.60;2.30;;;14.50;99.90;;;;;;2079150;28;20052;-70
2021/07/05 04:02:48;;;;;;;5.83;2.50;;;14.50;99.90;;;;;;2081920;28;20105;-74
2021/07/05 04:03:49;;;;;;;4.15;2.13;;;14.50;99.90;;;;;;2075463;28;20253;-70
2021/07/05 04:04:50;;;;;;;6.75;2.05;;;14.50;99.90;;;;;;2080645;28;20021;-70
2021/07/05 04:05:52;;;;;;;3.55;1.80;;;14.60;99.90;;;;;;2082103;28;20021;-70
2021/07/05 04:06:53;;;;;;;5.05;2.10;;;14.60;99.90;;;;;;2082165;28;20045;-69
2021/07/05 04:07:55;;;;;;;3.80;2.10;;;14.60;99.90;;;;;;2082099;28;20551;-69
2021/07/05 04:08:58;;;;;;;6.63;1.90;;;14.60;99.90;;;;;;2079222;28;20142;-69
2021/07/05 04:09:58;;;;;;;2.67;1.90;;;14.60;99.90;;;;;;2081586;28;20032;-70
2021/07/05 04:10:59;;;;;;;7.57;2.58;;;14.60;99.90;;;;;;2081412;28;20162;-70
2021/07/05 04:12:00;;;;;;;9.23;1.92;;;14.60;99.90;;;;;;2081874;28;20033;-70
2021/07/05 04:13:05;;;;;;;6.78;2.03;;;14.60;99.90;;;;;;2075313;28;20056;-70
2021/07/05 04:14:06;;;;;;;6.78;2.20;;;14.70;99.90;;;;;;2074279;28;20578;-69
2021/07/05 04:15:07;;;;;;;7.35;2.35;;;14.60;99.90;;;;;;2081493;28;20031;-69
2021/07/05 04:16:08;;;;;;;8.55;2.67;;;14.60;99.90;;;;;;2081798;28;20029;-69
2021/07/05 04:17:09;;;;;;;4.70;2.10;;;14.70;99.90;;;;;;2081991;28;20105;-70
2021/07/05 04:18:09;;;;;;;7.03;2.40;;;14.70;99.90;;;;;;2080923;28;20022;-70
2021/07/05 04:19:10;;;;;;;4.35;2.00;;;14.70;99.90;;;;;;2075022;28;20405;-69
2021/07/05 04:20:20;;;;;;;6.30;1.95;;;14.70;99.90;;;;;;2078307;28;20037;-70
2021/07/05 04:21:25;;;;;;;4.25;2.08;;;14.70;99.90;;;;;;2083738;28;20034;-69
2021/07/05 04:22:26;;;;;;;6.72;2.10;;;14.80;99.90;;;;;;2082560;28;20079;-69
2021/07/05 04:23:27;;;;;;;4.25;2.05;;;14.80;99.90;;;;;;2081900;28;20535;-70
2021/07/05 04:24:27;;;;;;;4.47;2.00;;;14.80;99.90;;;;;;2081904;28;20026;-70
2021/07/05 04:25:28;;;;;;;6.28;2.38;;;14.90;99.90;;;;;;2082535;28;20113;-70
2021/07/05 04:26:29;;;;;;;4.85;2.30;;;14.90;99.90;;;;;;2090646;28;20380;-70
2021/07/05 04:27:29;;;;;;;4.97;1.90;;;14.90;99.90;;;;;;2074640;28;20051;-70
2021/07/05 04:28:30;;;;;;;6.00;1.70;;;14.90;99.90;;;;;;2075286;28;20032;-70
2021/07/05 04:29:31;;;;;;;9.07;2.22;;;14.90;99.90;;;;;;2075560;28;20030;-70
2021/07/05 04:30:32;;;;;;;3.22;2.00;;;15.00;99.90;;;;;;2077263;28;20033;-70
2021/07/05 04:31:33;;;;;;;5.82;1.77;;;15.00;99.90;;;;;;2080698;28;20413;-70
2021/07/05 04:32:37;;;;;;;6.60;2.00;;;15.00;99.90;;;;;;2080500;28;20017;-70
2021/07/05 04:33:38;;;;;;;3.75;1.75;;;15.10;99.90;;;;;;2076783;28;20033;-70
2021/07/05 04:34:39;;;;;;;4.30;1.95;;;15.10;99.90;;;;;;2074660;28;20633;-70
2021/07/05 04:35:39;;;;;;;4.13;1.67;;;15.10;99.90;;;;;;2078160;28;20026;-70
2021/07/05 04:36:40;;;;;;;4.72;1.80;;;15.10;99.90;;;;;;2081148;28;20572;-70
2021/07/05 04:37:42;;;;;;;4.20;1.85;;;15.10;99.90;;;;;;2081337;28;20037;-70
2021/07/05 04:38:43;;;;;;;5.50;1.75;;;15.10;99.90;;;;;;2081136;28;20017;-70
2021/07/05 04:39:44;;;;;;;2.97;1.50;;;15.10;99.90;;;;;;2079502;28;20710;-70
2021/07/05 04:40:45;;;;;;;1.77;1.50;;;15.10;99.90;;;;;;2079734;28;20525;-69
2021/07/05 04:41:46;;;;;;;6.40;1.70;;;15.20;99.90;;;;;;2081002;28;20601;-69
2021/07/05 04:42:49;;;;;;;4.63;1.42;;;15.20;99.90;;;;;;2081027;28;20037;-70
2021/07/05 04:43:49;;;;;;;3.33;1.63;;;15.20;99.90;;;;;;2081010;28;20025;-70
2021/07/05 04:44:51;;;;;;;3.63;1.48;;;15.20;99.90;;;;;;2078587;28;20451;-70
2021/07/05 04:45:54;;;;;;;4.78;1.50;;;15.20;99.90;;;;;;2077775;28;20025;-70
2021/07/05 04:46:55;;;;;;;2.53;1.50;;;15.20;99.90;;;;;;2081120;28;20029;-69
2021/07/05 04:47:57;;;;;;;2.10;1.17;;;15.20;99.90;;;;;;2081195;28;20441;-70
2021/07/05 04:48:58;;;;;;;2.53;1.40;;;15.20;99.90;;;;;;2080381;28;20017;-70
2021/07/05 04:49:59;;;;;;;4.95;1.63;;;15.30;99.90;;;;;;2081155;28;20022;-70
2021/07/05 04:51:02;;;;;;;4.57;1.40;;;15.30;99.90;;;;;;2073386;28;20022;-70
2021/07/05 04:52:02;;;;;;;6.57;1.80;;;15.30;99.90;;;;;;2082864;28;20112;-70
2021/07/05 04:53:04;;;;;;;5.50;1.40;;;15.30;99.90;;;;;;2081528;28;20030;-70
2021/07/05 04:54:05;;;;;;;4.18;1.90;;;15.40;99.90;;;;;;2081427;28;20029;-70
2021/07/05 04:55:08;;;;;;;3.00;1.45;;;15.40;99.90;;;;;;2081551;28;20136;-70
2021/07/05 04:56:09;;;;;;;1.75;1.60;;;15.40;99.90;;;;;;2075120;28;20021;-69
2021/07/05 04:57:11;;;;;;;4.50;1.48;;;15.40;99.90;;;;;;2073053;28;20383;-69
2021/07/05 04:58:11;;;;;;;3.90;1.33;;;15.40;99.90;;;;;;2072448;28;20025;-70
2021/07/05 04:59:14;;;;;;;3.90;1.25;;;15.40;99.90;;;;;;2074070;28;20026;-70
2021/07/05 05:00:34;;;;;;;1.75;1.05;;;15.50;99.90;;;;;;2073086;28;20602;-70
2021/07/05 05:01:35;;;;;;;4.80;1.30;;;15.50;99.90;;;;;;2075437;28;20148;-70
2021/07/05 05:02:37;;;;;;;3.80;1.30;;;15.50;99.90;;;;;;2071456;28;20044;-70
2021/07/05 05:03:39;;;;;;;3.17;1.60;;;15.50;99.90;;;;;;2074413;28;20410;-69
2021/07/05 05:04:39;;;;;;;;;;;15.50;99.90;;;;;;2075198;28;20018;-70
2021/07/05 05:05:41;;;;;;;1.83;1.20;;;15.50;99.90;;;;;;2075844;28;19909;-70
2021/07/05 05:06:43;;;;;;;3.22;1.25;;;15.50;99.90;;;;;;2075013;28;20040;-70
2021/07/05 05:07:44;;;;;;;5.30;1.23;;;15.60;99.90;;;;;;2076044;28;20045;-70
2021/07/05 05:08:45;;;;;;;3.45;1.35;;;15.60;99.90;;;;;;2074736;28;20022;-70
2021/07/05 05:09:46;;;;;;;1.53;1.10;;;15.60;99.90;;;;;;2071875;28;20014;-69
2021/07/05 05:10:46;;;;;;;4.32;1.35;;;15.60;99.90;;;;;;2072209;28;20264;-70
2021/07/05 05:11:47;;;;;;;4.53;1.50;;;15.60;99.90;;;;;;2073986;28;20466;-70
2021/07/05 05:12:48;;;;;;;3.40;1.40;;;15.60;99.90;;;;;;2078437;28;20049;-70
2021/07/05 05:13:49;;;;;;;5.32;1.50;;;15.60;99.90;;;;;;2073656;28;20034;-69
2021/07/05 05:14:50;;;;;;;4.35;1.17;;;15.60;99.90;;;;;;2083129;28;20032;-70
2021/07/05 05:15:50;;;;;;;4.10;1.55;;;15.60;99.90;;;;;;2081216;28;20152;-70
2021/07/05 05:16:51;;;;;;;2.83;1.30;;;15.70;99.90;;;;;;2074265;28;20426;-70
2021/07/05 05:17:52;;;;;;;2.00;1.13;;;15.70;99.90;;;;;;2077723;28;20064;-70
2021/07/05 05:18:53;;;;;;;4.55;1.40;;;15.70;99.90;;;;;;2091156;28;20508;-70